createdAt,value
2018-05-29T00:02:19.538Z,9.17
2018-05-29T00:05:24.413Z,9.87
2018-05-29T00:08:29.982Z,10.07
2018-05-29T00:11:35.670Z,10.00
2018-05-29T00:14:49.861Z,9.13
2018-05-29T00:17:55.070Z,9.83
2018-05-29T00:21:00.286Z,8.97
2018-05-29T00:24:05.499Z,9.40
2018-05-29T00:27:11.229Z,9.10
2018-05-29T00:30:17.368Z,9.23
2018-05-29T00:33:23.357Z,9.00
2018-05-29T00:36:28.610Z,8.33
2018-05-29T00:39:33.517Z,8.40
2018-05-29T00:42:38.732Z,8.10
2018-05-29T00:45:43.921Z,9.00
2018-05-29T00:48:49.218Z,9.10
2018-05-29T00:51:54.409Z,8.00
2018-05-29T00:55:11.495Z,8.33
2018-05-29T00:58:18.152Z,8.20
2018-05-29T01:01:23.801Z,8.50
2018-05-29T01:04:29.003Z,8.63
2018-05-29T01:07:34.843Z,8.47
2018-05-29T01:10:40.041Z,8.10
2018-05-29T01:13:44.990Z,7.90
2018-05-29T01:16:50.268Z,7.90
2018-05-29T01:19:55.629Z,7.10
2018-05-29T01:23:01.749Z,8.03
2018-05-29T01:26:07.374Z,8.03
2018-05-29T01:29:13.259Z,7.57
2018-05-29T01:32:18.173Z,8.57
2018-05-29T01:35:23.406Z,6.63
2018-05-29T01:38:28.605Z,7.40
2018-05-29T01:41:33.860Z,7.57
2018-05-29T01:44:39.225Z,7.70
2018-05-29T01:47:45.347Z,6.30
2018-05-29T01:50:50.273Z,7.00
2018-05-29T01:53:55.680Z,7.50
2018-05-29T01:57:00.622Z,7.07
2018-05-29T02:00:06.097Z,7.60
2018-05-29T02:03:11.932Z,7.90
2018-05-29T02:06:16.867Z,7.43
2018-05-29T02:09:22.870Z,7.07
2018-05-29T02:12:27.896Z,7.33
2018-05-29T02:15:32.825Z,7.57
2018-05-29T02:18:38.775Z,7.23
2018-05-29T02:21:44.029Z,6.53
2018-05-29T02:24:49.936Z,7.53
2018-05-29T02:27:56.384Z,7.17
2018-05-29T02:31:02.120Z,8.30
2018-05-29T02:34:07.311Z,6.83
2018-05-29T02:37:12.524Z,7.60
2018-05-29T02:40:17.767Z,6.80
2018-05-29T02:43:23.998Z,7.13
2018-05-29T02:46:29.720Z,7.13
2018-05-29T02:49:35.544Z,6.70
2018-05-29T02:52:41.158Z,7.17
2018-05-29T02:55:46.567Z,7.53
2018-05-29T02:58:51.485Z,7.13
2018-05-29T03:01:56.833Z,7.90
2018-05-29T03:05:02.332Z,6.10
2018-05-29T03:08:07.262Z,7.20
2018-05-29T03:11:12.617Z,6.30
2018-05-29T03:14:18.259Z,7.43
2018-05-29T03:17:23.456Z,7.53
2018-05-29T03:20:29.591Z,8.67
2018-05-29T03:23:35.623Z,8.27
2018-05-29T03:26:41.453Z,8.50
2018-05-29T03:29:47.106Z,7.20
2018-05-29T03:32:54.141Z,7.70
2018-05-29T03:36:16.856Z,7.20
2018-05-29T03:39:29.877Z,7.27
2018-05-29T03:42:35.134Z,8.00
2018-05-29T03:45:41.132Z,7.87
2018-05-29T03:48:46.344Z,7.00
2018-05-29T03:51:52.305Z,8.20
2018-05-29T03:54:57.521Z,7.90
2018-05-29T03:58:03.649Z,7.37
2018-05-29T04:01:09.646Z,8.37
2018-05-29T04:04:15.387Z,7.30
2018-05-29T04:07:22.219Z,7.03
2018-05-29T04:10:28.165Z,8.00
2018-05-29T04:13:34.069Z,7.60
2018-05-29T04:16:39.336Z,7.27
2018-05-29T04:19:44.548Z,7.73
2018-05-29T04:22:49.533Z,7.70
2018-05-29T04:25:55.942Z,7.23
2018-05-29T04:29:02.233Z,7.47
2018-05-29T04:32:08.160Z,7.20
2018-05-29T04:35:14.164Z,7.20
2018-05-29T04:38:19.372Z,7.03
2018-05-29T04:41:24.576Z,7.63
2018-05-29T04:44:29.772Z,7.67
2018-05-29T04:47:35.899Z,8.27
2018-05-29T04:50:41.100Z,7.60
2018-05-29T04:53:46.789Z,7.70
2018-05-29T04:56:51.764Z,7.33
2018-05-29T04:59:56.973Z,7.77
2018-05-29T05:03:02.176Z,7.70
2018-05-29T05:06:08.029Z,8.03
2018-05-29T05:09:14.265Z,7.23
2018-05-29T05:12:20.145Z,7.77
2018-05-29T05:15:26.322Z,8.20
2018-05-29T05:18:32.137Z,7.93
2018-05-29T05:21:38.260Z,9.07
2018-05-29T05:24:43.494Z,8.80
2018-05-29T05:27:48.668Z,8.17
2018-05-29T05:30:53.887Z,8.53
2018-05-29T05:33:59.511Z,8.30
2018-05-29T05:37:05.121Z,8.40
2018-05-29T05:40:10.332Z,8.53
2018-05-29T05:43:14.494Z,7.77
2018-05-29T05:46:19.925Z,8.47
2018-05-29T05:49:25.162Z,7.83
2018-05-29T05:52:31.182Z,7.27
2018-05-29T05:55:37.312Z,8.57
2018-05-29T05:58:42.518Z,8.03
2018-05-29T06:01:47.724Z,8.03
2018-05-29T06:04:54.046Z,7.93
2018-05-29T06:07:59.642Z,7.80
2018-05-29T06:11:05.385Z,8.00
2018-05-29T06:14:11.092Z,8.10
2018-05-29T06:17:17.125Z,8.77
2018-05-29T06:20:23.236Z,7.40
2018-05-29T06:23:29.148Z,9.27
2018-05-29T06:26:35.164Z,7.90
2018-05-29T06:29:40.385Z,8.50
2018-05-29T06:32:45.307Z,8.70
2018-05-29T06:35:51.645Z,7.80
2018-05-29T06:38:56.842Z,8.30
2018-05-29T06:42:03.483Z,8.33
2018-05-29T06:45:08.430Z,7.70
2018-05-29T06:48:14.152Z,8.70
2018-05-29T06:51:19.420Z,7.87
2018-05-29T06:54:25.251Z,7.80
2018-05-29T06:57:30.876Z,8.50
2018-05-29T07:00:37.001Z,9.00
2018-05-29T07:03:41.939Z,8.17
2018-05-29T07:06:47.688Z,8.13
2018-05-29T07:09:52.896Z,8.47
2018-05-29T07:12:57.827Z,8.03
2018-05-29T07:16:04.178Z,7.77
2018-05-29T07:19:09.517Z,7.60
2018-05-29T07:22:14.996Z,8.50
2018-05-29T07:25:21.105Z,6.73
2018-05-29T07:28:27.133Z,8.30
2018-05-29T07:31:33.250Z,7.90
2018-05-29T07:34:39.276Z,8.13
2018-05-29T07:37:45.316Z,7.80
2018-05-29T07:40:50.515Z,7.87
2018-05-29T07:43:55.719Z,8.10
2018-05-29T07:47:00.664Z,7.87
2018-05-29T07:50:06.803Z,6.97
2018-05-29T07:53:12.953Z,8.20
2018-05-29T07:56:18.165Z,8.20
2018-05-29T07:59:23.379Z,7.80
2018-05-29T08:02:28.242Z,9.10
2018-05-29T08:05:34.177Z,8.83
2018-05-29T08:08:40.317Z,9.07
2018-05-29T08:11:45.936Z,8.40
2018-05-29T08:14:51.342Z,8.60
2018-05-29T08:17:57.066Z,8.67
2018-05-29T08:21:02.275Z,8.47
2018-05-29T08:24:07.486Z,8.53
2018-05-29T08:27:13.207Z,8.50
2018-05-29T08:30:18.428Z,7.47
2018-05-29T08:33:23.645Z,8.80
2018-05-29T08:36:28.848Z,8.17
2018-05-29T08:39:34.700Z,8.37
2018-05-29T08:42:40.104Z,8.57
2018-05-29T08:45:45.544Z,8.33
2018-05-29T08:48:50.963Z,7.70
2018-05-29T08:51:57.281Z,8.53
2018-05-29T08:55:03.382Z,8.20
2018-05-29T08:58:09.390Z,8.17
2018-05-29T09:01:14.595Z,8.13
2018-05-29T09:04:19.850Z,7.60
2018-05-29T09:07:26.013Z,7.83
2018-05-29T09:10:32.128Z,8.20
2018-05-29T09:13:38.262Z,8.30
2018-05-29T09:16:43.665Z,7.40
2018-05-29T09:19:49.068Z,7.37
2018-05-29T09:22:54.281Z,8.47
2018-05-29T09:25:59.928Z,7.93
2018-05-29T09:29:06.193Z,7.97
2018-05-29T09:32:11.407Z,7.90
2018-05-29T09:35:16.617Z,7.10
2018-05-29T09:38:21.817Z,6.57
2018-05-29T09:41:27.471Z,7.87
2018-05-29T09:44:33.554Z,7.60
2018-05-29T09:47:38.766Z,7.57
2018-05-29T09:50:44.501Z,7.67
2018-05-29T09:53:49.702Z,7.23
2018-05-29T09:56:54.913Z,7.27
2018-05-29T10:00:01.232Z,7.67
2018-05-29T10:03:07.773Z,6.57
2018-05-29T10:06:13.422Z,7.43
2018-05-29T10:09:19.079Z,7.50
2018-05-29T10:12:24.497Z,6.27
2018-05-29T10:15:30.541Z,6.97
2018-05-29T10:18:35.749Z,7.33
2018-05-29T10:21:41.836Z,6.50
2018-05-29T10:24:47.457Z,7.20
2018-05-29T10:27:53.101Z,7.00
2018-05-29T10:30:58.356Z,6.50
2018-05-29T10:34:04.517Z,7.60
2018-05-29T10:37:10.437Z,7.57
2018-05-29T10:40:15.636Z,7.00
2018-05-29T10:43:20.232Z,6.37
2018-05-29T10:46:25.979Z,5.87
2018-05-29T10:49:31.175Z,7.30
2018-05-29T10:52:36.412Z,7.27
2018-05-29T10:55:41.821Z,6.30
2018-05-29T10:58:47.029Z,6.40
2018-05-29T11:01:53.356Z,7.00
2018-05-29T11:04:59.144Z,7.53
2018-05-29T11:08:03.842Z,7.50
2018-05-29T11:11:10.080Z,6.60
2018-05-29T11:14:15.352Z,6.67
2018-05-29T11:17:20.460Z,6.97
2018-05-29T11:20:26.381Z,6.10
2018-05-29T11:23:32.483Z,6.40
2018-05-29T11:26:37.877Z,6.50
2018-05-29T11:29:44.092Z,7.10
2018-05-29T11:32:50.581Z,6.17
2018-05-29T11:35:55.929Z,6.43
2018-05-29T11:39:02.178Z,5.87
2018-05-29T11:42:07.993Z,6.37
2018-05-29T11:45:13.204Z,6.03
2018-05-29T11:48:18.193Z,6.00
2018-05-29T11:51:23.157Z,4.60
2018-05-29T11:54:28.085Z,5.50
2018-05-29T11:57:33.923Z,5.20
2018-05-29T12:00:40.102Z,4.83
2018-05-29T12:03:46.153Z,4.67
2018-05-29T12:06:51.795Z,4.50
2018-05-29T12:09:57.820Z,4.60
2018-05-29T12:13:03.568Z,4.77
2018-05-29T12:16:09.666Z,4.87
2018-05-29T12:19:15.283Z,4.70
2018-05-29T12:22:20.526Z,4.23
2018-05-29T12:25:26.824Z,5.83
2018-05-29T12:28:32.959Z,4.27
2018-05-29T12:31:39.067Z,4.23
2018-05-29T12:34:45.068Z,4.40
2018-05-29T12:37:51.196Z,4.30
2018-05-29T12:40:57.312Z,4.50
2018-05-29T12:44:03.344Z,4.10
2018-05-29T12:47:09.029Z,4.40
2018-05-29T12:50:14.773Z,4.37
2018-05-29T12:53:20.039Z,3.97
2018-05-29T12:56:27.317Z,3.73
2018-05-29T12:59:33.147Z,4.10
2018-05-29T13:02:39.475Z,3.90
2018-05-29T13:05:45.137Z,3.97
2018-05-29T13:08:50.008Z,3.93
2018-05-29T13:11:55.848Z,3.57
2018-05-29T13:15:01.189Z,3.73
2018-05-29T13:18:06.908Z,3.90
2018-05-29T13:21:12.248Z,3.40
2018-05-29T13:24:17.451Z,3.60
2018-05-29T13:27:24.457Z,3.53
2018-05-29T13:30:29.390Z,3.93
2018-05-29T13:33:35.004Z,2.90
2018-05-29T13:36:40.849Z,3.30
2018-05-29T13:39:46.742Z,3.53
2018-05-29T13:42:52.860Z,3.27
2018-05-29T13:45:58.424Z,3.50
2018-05-29T13:49:03.640Z,3.10
2018-05-29T13:52:08.976Z,4.17
2018-05-29T13:55:13.903Z,3.00
2018-05-29T13:58:20.448Z,3.53
2018-05-29T14:01:26.693Z,3.60
2018-05-29T14:04:32.076Z,3.03
2018-05-29T14:07:37.265Z,3.47
2018-05-29T14:10:42.188Z,3.37
2018-05-29T14:13:48.734Z,4.00
2018-05-29T14:16:54.118Z,3.10
2018-05-29T14:19:59.741Z,3.50
2018-05-29T14:23:04.779Z,2.90
2018-05-29T14:26:09.727Z,2.60
2018-05-29T14:29:15.188Z,3.27
2018-05-29T14:32:21.329Z,2.90
2018-05-29T14:35:27.272Z,3.00
2018-05-29T14:38:31.994Z,2.73
2018-05-29T14:41:37.067Z,2.60
2018-05-29T14:44:42.406Z,2.60
2018-05-29T14:47:47.328Z,2.50
2018-05-29T14:50:52.268Z,2.73
2018-05-29T14:53:57.394Z,2.77
2018-05-29T14:57:02.946Z,2.63
2018-05-29T15:00:08.863Z,2.63
2018-05-29T15:03:14.728Z,2.70
2018-05-29T15:06:20.114Z,2.30
2018-05-29T15:09:25.006Z,1.90
2018-05-29T15:12:30.468Z,2.83
2018-05-29T15:15:35.453Z,2.30
2018-05-29T15:18:40.985Z,2.10
2018-05-29T15:21:46.450Z,2.57
2018-05-29T15:24:52.348Z,2.13
2018-05-29T15:27:58.477Z,2.63
2018-05-29T15:31:04.301Z,2.47
2018-05-29T15:34:10.549Z,2.10
2018-05-29T15:37:16.780Z,2.50
2018-05-29T15:40:23.433Z,2.10
2018-05-29T15:43:28.965Z,3.43
2018-05-29T15:46:33.936Z,4.30
2018-05-29T15:49:39.420Z,3.40
2018-05-29T15:52:45.253Z,2.23
2018-05-29T15:55:50.271Z,2.80
2018-05-29T15:58:55.188Z,2.37
2018-05-29T16:02:00.520Z,2.37
2018-05-29T16:05:05.149Z,2.30
2018-05-29T16:08:10.184Z,2.23
2018-05-29T16:11:15.153Z,2.87
2018-05-29T16:14:20.317Z,2.40
2018-05-29T16:17:25.680Z,2.53
2018-05-29T16:20:30.613Z,2.70
2018-05-29T16:23:36.344Z,2.67
2018-05-29T16:26:40.723Z,2.83
2018-05-29T16:29:46.750Z,2.57
2018-05-29T16:32:51.690Z,3.17
2018-05-29T16:35:56.944Z,3.60
2018-05-29T16:39:02.178Z,2.33
2018-05-29T16:42:07.714Z,3.20
2018-05-29T16:45:12.345Z,2.80
2018-05-29T16:48:16.965Z,2.93
2018-05-29T16:51:21.900Z,2.77
2018-05-29T16:54:27.440Z,3.17
2018-05-29T16:57:32.401Z,3.17
2018-05-29T17:00:37.328Z,3.00
2018-05-29T17:03:43.603Z,3.00
2018-05-29T17:06:49.552Z,3.00
2018-05-29T17:09:56.010Z,3.43
2018-05-29T17:13:01.345Z,3.37
2018-05-29T17:16:06.300Z,3.83
2018-05-29T17:19:12.261Z,2.77
2018-05-29T17:22:17.925Z,3.17
2018-05-29T17:25:22.856Z,3.07
2018-05-29T17:28:28.390Z,2.77
2018-05-29T17:31:33.306Z,2.50
2018-05-29T17:34:38.256Z,2.83
2018-05-29T17:37:44.028Z,2.73
2018-05-29T17:40:48.987Z,2.70
2018-05-29T17:43:54.413Z,2.90
2018-05-29T17:47:01.041Z,2.63
2018-05-29T17:50:05.635Z,3.30
2018-05-29T17:53:11.397Z,2.50
2018-05-29T17:56:17.378Z,2.73
2018-05-29T17:59:22.825Z,2.97
2018-05-29T18:02:27.769Z,2.70
2018-05-29T18:05:33.600Z,2.37
2018-05-29T18:08:38.530Z,2.83
2018-05-29T18:11:44.377Z,2.77
2018-05-29T18:14:49.718Z,2.43
2018-05-29T18:17:54.639Z,2.70
2018-05-29T18:20:59.575Z,2.40
2018-05-29T18:24:05.013Z,2.90
2018-05-29T18:27:09.932Z,3.23
2018-05-29T18:30:16.370Z,3.23
2018-05-29T18:33:21.737Z,2.90
2018-05-29T18:36:26.704Z,3.30
2018-05-29T18:39:32.524Z,3.03
2018-05-29T18:42:37.484Z,3.67
2018-05-29T18:45:42.414Z,3.13
2018-05-29T18:48:48.460Z,3.03
2018-05-29T18:51:53.604Z,4.07
2018-05-29T18:54:59.722Z,3.20
2018-05-29T18:58:05.634Z,3.60
2018-05-29T19:01:11.676Z,3.27
2018-05-29T19:04:17.408Z,3.90
2018-05-29T19:07:23.376Z,3.40
2018-05-29T19:10:28.877Z,3.30
2018-05-29T19:13:34.776Z,3.17
2018-05-29T19:16:39.856Z,4.00
2018-05-29T19:19:44.781Z,3.50
2018-05-29T19:22:51.401Z,3.67
2018-05-29T19:25:57.490Z,3.33
2018-05-29T19:29:03.041Z,4.30
2018-05-29T19:32:08.909Z,3.47
2018-05-29T19:35:13.863Z,3.70
2018-05-29T19:38:18.975Z,3.30
2018-05-29T19:41:24.405Z,4.10
2018-05-29T19:44:30.262Z,3.63
2018-05-29T19:47:36.237Z,3.83
2018-05-29T19:50:41.684Z,4.07
2018-05-29T19:53:47.089Z,4.27
2018-05-29T19:56:52.359Z,3.17
2018-05-29T19:59:57.295Z,4.17
2018-05-29T20:03:03.122Z,4.00
2018-05-29T20:06:08.324Z,3.20
2018-05-29T20:09:14.253Z,4.80
2018-05-29T20:12:19.814Z,3.77
2018-05-29T20:15:25.948Z,3.73
2018-05-29T20:18:31.398Z,3.50
2018-05-29T20:21:37.423Z,4.20
2018-05-29T20:24:43.469Z,4.00
2018-05-29T20:27:49.401Z,3.80
2018-05-29T20:30:55.341Z,3.70
2018-05-29T20:34:00.881Z,3.70
2018-05-29T20:37:06.330Z,3.60
2018-05-29T20:40:12.200Z,3.47
2018-05-29T20:43:18.160Z,3.97
2018-05-29T20:46:23.967Z,3.20
2018-05-29T20:49:29.724Z,3.20
2018-05-29T20:52:34.657Z,3.70
2018-05-29T20:55:40.013Z,3.50
2018-05-29T20:58:46.030Z,3.53
2018-05-29T21:01:51.276Z,2.10
2018-05-29T21:04:56.193Z,3.10
2018-05-29T21:08:02.084Z,2.93
2018-05-29T21:11:07.504Z,2.93
2018-05-29T21:14:12.478Z,3.43
2018-05-29T21:17:17.441Z,3.07
2018-05-29T21:20:23.280Z,3.40
2018-05-29T21:23:29.659Z,3.00
2018-05-29T21:26:34.585Z,3.77
2018-05-29T21:29:39.925Z,3.43
2018-05-29T21:32:44.869Z,3.30
2018-05-29T21:35:49.792Z,2.63
2018-05-29T21:38:54.722Z,2.90
2018-05-29T21:42:00.057Z,2.70
2018-05-29T21:45:05.005Z,3.00
2018-05-29T21:48:09.528Z,2.70
2018-05-29T21:51:15.176Z,2.93
2018-05-29T21:54:20.175Z,3.30
2018-05-29T21:57:26.328Z,3.00
2018-05-29T22:00:31.512Z,3.17
2018-05-29T22:03:36.431Z,3.17
2018-05-29T22:06:42.160Z,2.70
2018-05-29T22:09:47.691Z,3.60
2018-05-29T22:12:53.132Z,3.37
2018-05-29T22:15:58.952Z,2.87
2018-05-29T22:19:04.301Z,2.53
2018-05-29T22:22:10.137Z,2.67
2018-05-29T22:25:15.476Z,3.23
2018-05-29T22:28:20.650Z,2.73
2018-05-29T22:31:25.851Z,3.07
2018-05-29T22:34:32.072Z,2.80
2018-05-29T22:37:38.431Z,2.73
2018-05-29T22:40:43.977Z,2.70
2018-05-29T22:43:49.107Z,3.07
2018-05-29T22:46:54.544Z,2.67
2018-05-29T22:49:59.748Z,3.33
2018-05-29T22:53:05.117Z,2.33
2018-05-29T22:56:11.231Z,2.70
2018-05-29T22:59:16.565Z,2.80
2018-05-29T23:02:22.432Z,3.27
2018-05-29T23:05:27.360Z,2.60
2018-05-29T23:08:32.561Z,3.17
2018-05-29T23:11:37.492Z,3.20
2018-05-29T23:14:42.540Z,3.20
2018-05-29T23:17:47.469Z,2.70
2018-05-29T23:20:53.084Z,3.40
2018-05-29T23:23:59.209Z,2.80
2018-05-29T23:27:04.409Z,3.07
2018-05-29T23:30:09.623Z,3.00
2018-05-29T23:33:15.036Z,3.10
2018-05-29T23:36:20.245Z,3.13
2018-05-29T23:39:25.437Z,2.80
2018-05-29T23:42:31.761Z,2.70
2018-05-29T23:45:37.864Z,2.93
2018-05-29T23:48:43.972Z,2.77
2018-05-29T23:51:50.128Z,3.00
2018-05-29T23:54:55.905Z,2.93
2018-05-29T23:58:01.532Z,2.60
